sensor_id;sensor_type;location;lat;lon;timestamp;pressure;altitude;pressure_sealevel;temperature;humidity
6198;BME280;3132;42.622;23.328;2023-06-14T00:00:10;92592.31;;;17.15;100.00
6198;BME280;3132;42.622;23.328;2023-06-14T00:02:38;92588.25;;;17.17;100.00
6198;BME280;3132;42.622;23.328;2023-06-14T00:05:05;92571.09;;;17.03;100.00
6198;BME280;3132;42.622;23.328;2023-06-14T00:07:38;92586.38;;;17.18;100.00
6198;BME280;3132;42.622;23.328;2023-06-14T00:10:08;92584.78;;;17.25;100.00
6198;BME280;3132;42.622;23.328;2023-06-14T00:12:34;92579.38;;;17.22;100.00
6198;BME280;3132;42.622;23.328;2023-06-14T00:15:00;92576.41;;;17.23;100.00
6198;BME280;3132;42.622;23.328;2023-06-14T00:17:27;92579.81;;;17.24;100.00
6198;BME280;3132;42.622;23.328;2023-06-14T00:19:56;92565.16;;;17.06;100.00
6198;BME280;3132;42.622;23.328;2023-06-14T00:22:22;92543.50;;;17.00;100.00
6198;BME280;3132;42.622;23.328;2023-06-14T00:24:50;92565.38;;;17.21;100.00
6198;BME280;3132;42.622;23.328;2023-06-14T00:27:16;92562.34;;;17.11;100.00
6198;BME280;3132;42.622;23.328;2023-06-14T00:29:41;92566.25;;;17.13;100.00
6198;BME280;3132;42.622;23.328;2023-06-14T00:32:07;92568.56;;;17.15;100.00
6198;BME280;3132;42.622;23.328;2023-06-14T00:34:32;92554.75;;;17.09;100.00
6198;BME280;3132;42.622;23.328;2023-06-14T00:36:58;92554.59;;;17.14;100.00
6198;BME280;3132;42.622;23.328;2023-06-14T00:39:23;92553.69;;;17.10;100.00
6198;BME280;3132;42.622;23.328;2023-06-14T00:41:49;92550.13;;;16.77;100.00
6198;BME280;3132;42.622;23.328;2023-06-14T00:44:16;92564.03;;;16.49;100.00
6198;BME280;3132;42.622;23.328;2023-06-14T00:46:42;92555.81;;;16.88;100.00
6198;BME280;3132;42.622;23.328;2023-06-14T00:49:08;92532.41;;;16.86;100.00
6198;BME280;3132;42.622;23.328;2023-06-14T00:51:34;92564.72;;;17.04;100.00
6198;BME280;3132;42.622;23.328;2023-06-14T00:53:59;92552.50;;;16.99;100.00
6198;BME280;3132;42.622;23.328;2023-06-14T00:56:26;92554.94;;;17.04;100.00
6198;BME280;3132;42.622;23.328;2023-06-14T00:58:53;92532.22;;;16.91;100.00
6198;BME280;3132;42.622;23.328;2023-06-14T01:01:18;92553.69;;;17.10;100.00
6198;BME280;3132;42.622;23.328;2023-06-14T01:03:43;92545.25;;;17.17;100.00
6198;BME280;3132;42.622;23.328;2023-06-14T01:06:33;92554.13;;;17.12;100.00
6198;BME280;3132;42.622;23.328;2023-06-14T01:09:18;92551.47;;;17.12;100.00
6198;BME280;3132;42.622;23.328;2023-06-14T01:14:19;92538.34;;;17.04;100.00
6198;BME280;3132;42.622;23.328;2023-06-14T01:16:47;92555.22;;;17.11;100.00
6198;BME280;3132;42.622;23.328;2023-06-14T01:19:13;92525.97;;;16.96;100.00
6198;BME280;3132;42.622;23.328;2023-06-14T01:21:39;92551.97;;;17.06;100.00
6198;BME280;3132;42.622;23.328;2023-06-14T01:24:10;92523.13;;;16.80;100.00
6198;BME280;3132;42.622;23.328;2023-06-14T01:26:37;92551.56;;;16.95;100.00
6198;BME280;3132;42.622;23.328;2023-06-14T01:29:03;92550.94;;;16.98;100.00
6198;BME280;3132;42.622;23.328;2023-06-14T01:31:29;92546.78;;;16.89;100.00
6198;BME280;3132;42.622;23.328;2023-06-14T01:34:05;92546.94;;;16.92;100.00
6198;BME280;3132;42.622;23.328;2023-06-14T01:36:30;92549.31;;;16.85;100.00
6198;BME280;3132;42.622;23.328;2023-06-14T01:38:58;92534.16;;;16.74;100.00
6198;BME280;3132;42.622;23.328;2023-06-14T01:41:24;92549.00;;;16.87;100.00
6198;BME280;3132;42.622;23.328;2023-06-14T01:43:50;92536.00;;;16.73;100.00
6198;BME280;3132;42.622;23.328;2023-06-14T01:46:17;92553.03;;;16.84;100.00
6198;BME280;3132;42.622;23.328;2023-06-14T01:48:43;92546.63;;;16.94;100.00
6198;BME280;3132;42.622;23.328;2023-06-14T01:51:08;92545.56;;;16.86;100.00
6198;BME280;3132;42.622;23.328;2023-06-14T01:53:34;92522.25;;;16.68;100.00
6198;BME280;3132;42.622;23.328;2023-06-14T01:55:59;92547.19;;;16.70;100.00
6198;BME280;3132;42.622;23.328;2023-06-14T01:58:26;92544.94;;;16.60;100.00
6198;BME280;3132;42.622;23.328;2023-06-14T02:00:51;92530.06;;;16.47;100.00
6198;BME280;3132;42.622;23.328;2023-06-14T02:03:20;92552.78;;;16.69;100.00
6198;BME280;3132;42.622;23.328;2023-06-14T02:05:46;92540.78;;;16.51;100.00
6198;BME280;3132;42.622;23.328;2023-06-14T02:08:11;92563.28;;;16.23;100.00
6198;BME280;3132;42.622;23.328;2023-06-14T02:10:36;92547.22;;;16.07;100.00
6198;BME280;3132;42.622;23.328;2023-06-14T02:13:02;92561.28;;;16.20;100.00
6198;BME280;3132;42.622;23.328;2023-06-14T02:15:27;92556.19;;;16.15;100.00
6198;BME280;3132;42.622;23.328;2023-06-14T02:17:59;92571.78;;;16.28;100.00
6198;BME280;3132;42.622;23.328;2023-06-14T02:20:24;92568.88;;;16.21;100.00
6198;BME280;3132;42.622;23.328;2023-06-14T02:22:49;92572.28;;;16.22;100.00
6198;BME280;3132;42.622;23.328;2023-06-14T02:25:15;92571.19;;;16.23;100.00
6198;BME280;3132;42.622;23.328;2023-06-14T02:27:40;92561.47;;;15.97;100.00
6198;BME280;3132;42.622;23.328;2023-06-14T02:30:06;92563.31;;;15.97;100.00
6198;BME280;3132;42.622;23.328;2023-06-14T02:32:32;92570.88;;;16.16;100.00
6198;BME280;3132;42.622;23.328;2023-06-14T02:35:00;92573.06;;;16.22;100.00
6198;BME280;3132;42.622;23.328;2023-06-14T02:37:26;92574.16;;;16.21;100.00
6198;BME280;3132;42.622;23.328;2023-06-14T02:39:51;92563.03;;;16.07;100.00
6198;BME280;3132;42.622;23.328;2023-06-14T02:42:17;92572.47;;;16.17;100.00
6198;BME280;3132;42.622;23.328;2023-06-14T02:44:42;92567.03;;;16.13;100.00
6198;BME280;3132;42.622;23.328;2023-06-14T02:47:08;92575.56;;;16.19;100.00
6198;BME280;3132;42.622;23.328;2023-06-14T02:49:34;92577.91;;;16.03;100.00
6198;BME280;3132;42.622;23.328;2023-06-14T02:51:59;92568.59;;;15.97;100.00
6198;BME280;3132;42.622;23.328;2023-06-14T02:54:25;92571.38;;;16.00;100.00
6198;BME280;3132;42.622;23.328;2023-06-14T02:56:50;92573.09;;;16.05;100.00
6198;BME280;3132;42.622;23.328;2023-06-14T02:59:16;92581.13;;;16.17;100.00
6198;BME280;3132;42.622;23.328;2023-06-14T03:01:42;92577.72;;;16.17;100.00
6198;BME280;3132;42.622;23.328;2023-06-14T03:04:08;92586.38;;;16.34;100.00
6198;BME280;3132;42.622;23.328;2023-06-14T03:06:33;92585.41;;;16.47;100.00
6198;BME280;3132;42.622;23.328;2023-06-14T03:09:03;92560.94;;;16.30;100.00
6198;BME280;3132;42.622;23.328;2023-06-14T03:11:32;92583.53;;;16.39;100.00
6198;BME280;3132;42.622;23.328;2023-06-14T03:13:57;92588.53;;;16.49;100.00
6198;BME280;3132;42.622;23.328;2023-06-14T03:16:23;92573.66;;;16.45;100.00
6198;BME280;3132;42.622;23.328;2023-06-14T03:18:52;92556.59;;;16.34;100.00
6198;BME280;3132;42.622;23.328;2023-06-14T03:21:21;92580.88;;;16.56;100.00
6198;BME280;3132;42.622;23.328;2023-06-14T03:23:47;92589.09;;;16.63;100.00
6198;BME280;3132;42.622;23.328;2023-06-14T03:26:14;92593.56;;;16.71;100.00
6198;BME280;3132;42.622;23.328;2023-06-14T03:28:43;92603.00;;;16.81;100.00
6198;BME280;3132;42.622;23.328;2023-06-14T03:31:09;92589.78;;;16.89;100.00
6198;BME280;3132;42.622;23.328;2023-06-14T03:33:34;92587.59;;;16.91;100.00
6198;BME280;3132;42.622;23.328;2023-06-14T03:36:01;92598.09;;;17.00;100.00
6198;BME280;3132;42.622;23.328;2023-06-14T03:38:27;92598.22;;;17.12;100.00
6198;BME280;3132;42.622;23.328;2023-06-14T03:40:52;92605.84;;;17.05;100.00
6198;BME280;3132;42.622;23.328;2023-06-14T03:43:17;92602.09;;;17.06;100.00
6198;BME280;3132;42.622;23.328;2023-06-14T03:45:43;92601.19;;;17.02;100.00
6198;BME280;3132;42.622;23.328;2023-06-14T03:48:09;92602.72;;;16.74;100.00
6198;BME280;3132;42.622;23.328;2023-06-14T03:50:34;92607.13;;;16.53;100.00
6198;BME280;3132;42.622;23.328;2023-06-14T03:53:03;92605.88;;;16.50;100.00
6198;BME280;3132;42.622;23.328;2023-06-14T03:55:28;92601.28;;;16.76;100.00
6198;BME280;3132;42.622;23.328;2023-06-14T03:57:56;92612.09;;;16.92;100.00
6198;BME280;3132;42.622;23.328;2023-06-14T04:00:22;92606.63;;;17.05;100.00
6198;BME280;3132;42.622;23.328;2023-06-14T04:02:47;92614.78;;;17.12;100.00
6198;BME280;3132;42.622;23.328;2023-06-14T04:05:13;92613.19;;;17.20;100.00
6198;BME280;3132;42.622;23.328;2023-06-14T04:07:41;92621.41;;;17.27;100.00
6198;BME280;3132;42.622;23.328;2023-06-14T04:10:11;92612.03;;;17.38;100.00
6198;BME280;3132;42.622;23.328;2023-06-14T04:12:36;92605.72;;;17.30;100.00
6198;BME280;3132;42.622;23.328;2023-06-14T04:15:02;92620.53;;;17.73;100.00
6198;BME280;3132;42.622;23.328;2023-06-14T04:17:28;92605.88;;;17.84;100.00
6198;BME280;3132;42.622;23.328;2023-06-14T04:19:53;92596.88;;;17.97;100.00
6198;BME280;3132;42.622;23.328;2023-06-14T04:22:19;92607.44;;;18.38;100.00
6198;BME280;3132;42.622;23.328;2023-06-14T04:24:44;92614.56;;;18.70;98.98
6198;BME280;3132;42.622;23.328;2023-06-14T04:27:09;92624.41;;;18.81;98.98
6198;BME280;3132;42.622;23.328;2023-06-14T04:29:35;92618.16;;;18.98;97.27
6198;BME280;3132;42.622;23.328;2023-06-14T04:32:01;92616.88;;;19.64;95.85
6198;BME280;3132;42.622;23.328;2023-06-14T04:34:27;92622.53;;;21.63;83.24
6198;BME280;3132;42.622;23.328;2023-06-14T04:36:59;92633.22;;;22.16;78.94
6198;BME280;3132;42.622;23.328;2023-06-14T04:39:26;92623.50;;;21.24;80.57
6198;BME280;3132;42.622;23.328;2023-06-14T04:41:52;92624.94;;;20.62;84.27
6198;BME280;3132;42.622;23.328;2023-06-14T04:44:23;92624.56;;;20.76;83.93
6198;BME280;3132;42.622;23.328;2023-06-14T04:46:55;92624.66;;;20.80;85.27
6198;BME280;3132;42.622;23.328;2023-06-14T04:49:21;92639.06;;;21.72;81.63
6198;BME280;3132;42.622;23.328;2023-06-14T04:51:48;92635.66;;;21.56;81.09
6198;BME280;3132;42.622;23.328;2023-06-14T04:54:16;92622.88;;;20.84;86.23
6198;BME280;3132;42.622;23.328;2023-06-14T04:56:44;92629.59;;;20.38;88.60
6198;BME280;3132;42.622;23.328;2023-06-14T04:59:10;92622.03;;;20.24;87.96
6198;BME280;3132;42.622;23.328;2023-06-14T05:01:40;92638.56;;;20.89;85.62
6198;BME280;3132;42.622;23.328;2023-06-14T05:04:05;92635.19;;;20.21;89.16
6198;BME280;3132;42.622;23.328;2023-06-14T05:06:31;92641.19;;;20.89;87.06
6198;BME280;3132;42.622;23.328;2023-06-14T05:08:56;92632.63;;;20.95;85.98
6198;BME280;3132;42.622;23.328;2023-06-14T05:11:21;92654.44;;;21.32;83.08
6198;BME280;3132;42.622;23.328;2023-06-14T05:13:49;92646.56;;;21.35;84.32
6198;BME280;3132;42.622;23.328;2023-06-14T05:16:15;92643.44;;;22.34;78.02
6198;BME280;3132;42.622;23.328;2023-06-14T05:18:44;92657.16;;;22.51;76.84
6198;BME280;3132;42.622;23.328;2023-06-14T05:21:11;92654.78;;;22.31;78.06
6198;BME280;3132;42.622;23.328;2023-06-14T05:23:36;92658.03;;;22.20;77.07
6198;BME280;3132;42.622;23.328;2023-06-14T05:26:01;92672.25;;;21.78;79.45
6198;BME280;3132;42.622;23.328;2023-06-14T05:28:29;92663.34;;;21.08;84.91
6198;BME280;3132;42.622;23.328;2023-06-14T05:30:56;92672.44;;;21.85;81.98
6198;BME280;3132;42.622;23.328;2023-06-14T05:33:21;92680.28;;;22.32;79.30
6198;BME280;3132;42.622;23.328;2023-06-14T05:35:47;92681.44;;;22.88;77.81
6198;BME280;3132;42.622;23.328;2023-06-14T05:38:12;92690.50;;;24.45;71.87
6198;BME280;3132;42.622;23.328;2023-06-14T05:40:37;92685.25;;;23.73;71.17
6198;BME280;3132;42.622;23.328;2023-06-14T05:43:03;92676.75;;;22.62;76.31
6198;BME280;3132;42.622;23.328;2023-06-14T05:45:28;92659.06;;;21.50;80.48
6198;BME280;3132;42.622;23.328;2023-06-14T05:47:53;92682.03;;;21.74;83.79
6198;BME280;3132;42.622;23.328;2023-06-14T05:50:20;92684.19;;;22.53;81.89
6198;BME280;3132;42.622;23.328;2023-06-14T05:52:45;92691.47;;;22.75;78.16
6198;BME280;3132;42.622;23.328;2023-06-14T05:55:11;92688.38;;;22.73;77.78
6198;BME280;3132;42.622;23.328;2023-06-14T05:57:40;92668.69;;;22.05;77.67
6198;BME280;3132;42.622;23.328;2023-06-14T06:00:07;92672.00;;;21.36;80.76
6198;BME280;3132;42.622;23.328;2023-06-14T06:02:36;92670.41;;;20.89;84.71
6198;BME280;3132;42.622;23.328;2023-06-14T06:05:02;92680.44;;;20.40;88.38
6198;BME280;3132;42.622;23.328;2023-06-14T06:07:27;92685.63;;;20.64;88.27
6198;BME280;3132;42.622;23.328;2023-06-14T06:09:53;92671.13;;;19.94;89.21
6198;BME280;3132;42.622;23.328;2023-06-14T06:12:18;92687.00;;;20.06;89.69
6198;BME280;3132;42.622;23.328;2023-06-14T06:14:44;92691.44;;;19.90;90.44
6198;BME280;3132;42.622;23.328;2023-06-14T06:17:09;92672.56;;;19.68;92.42
6198;BME280;3132;42.622;23.328;2023-06-14T06:19:35;92679.31;;;19.65;91.79
6198;BME280;3132;42.622;23.328;2023-06-14T06:22:00;92685.84;;;19.56;93.46
6198;BME280;3132;42.622;23.328;2023-06-14T06:24:25;92671.81;;;19.43;94.17
6198;BME280;3132;42.622;23.328;2023-06-14T06:26:51;92689.25;;;19.56;93.96
6198;BME280;3132;42.622;23.328;2023-06-14T06:29:16;92639.56;;;19.05;95.17
6198;BME280;3132;42.622;23.328;2023-06-14T06:31:41;92688.56;;;18.37;98.21
6198;BME280;3132;42.622;23.328;2023-06-14T06:34:07;92645.59;;;18.49;99.54
6198;BME280;3132;42.622;23.328;2023-06-14T06:36:32;92702.38;;;18.96;100.00
6198;BME280;3132;42.622;23.328;2023-06-14T06:38:57;92695.53;;;18.95;99.97
6198;BME280;3132;42.622;23.328;2023-06-14T06:41:23;92679.63;;;18.83;100.00
6198;BME280;3132;42.622;23.328;2023-06-14T06:43:48;92638.63;;;18.24;100.00
6198;BME280;3132;42.622;23.328;2023-06-14T06:46:14;92700.19;;;18.98;99.44
6198;BME280;3132;42.622;23.328;2023-06-14T06:48:39;92673.72;;;18.98;97.60
6198;BME280;3132;42.622;23.328;2023-06-14T06:51:05;92692.22;;;19.31;95.34
6198;BME280;3132;42.622;23.328;2023-06-14T06:53:30;92683.31;;;19.14;95.11
6198;BME280;3132;42.622;23.328;2023-06-14T06:55:56;92699.56;;;19.25;95.38
6198;BME280;3132;42.622;23.328;2023-06-14T06:58:21;92687.66;;;19.19;96.70
6198;BME280;3132;42.622;23.328;2023-06-14T07:00:47;92681.09;;;19.37;93.26
6198;BME280;3132;42.622;23.328;2023-06-14T07:03:12;92693.66;;;19.88;90.59
6198;BME280;3132;42.622;23.328;2023-06-14T07:05:38;92674.22;;;19.96;88.42
6198;BME280;3132;42.622;23.328;2023-06-14T07:08:03;92685.34;;;20.81;86.68
6198;BME280;3132;42.622;23.328;2023-06-14T07:10:29;92715.69;;;22.01;83.92
6198;BME280;3132;42.622;23.328;2023-06-14T07:12:54;92720.63;;;22.87;80.39
6198;BME280;3132;42.622;23.328;2023-06-14T07:15:20;92707.84;;;23.80;73.66
6198;BME280;3132;42.622;23.328;2023-06-14T07:17:45;92717.00;;;23.37;75.22
6198;BME280;3132;42.622;23.328;2023-06-14T07:20:11;92721.31;;;23.03;74.65
6198;BME280;3132;42.622;23.328;2023-06-14T07:22:39;92683.69;;;22.13;76.58
6198;BME280;3132;42.622;23.328;2023-06-14T07:25:06;92715.69;;;22.01;78.97
6198;BME280;3132;42.622;23.328;2023-06-14T07:27:31;92710.50;;;21.89;78.87
6198;BME280;3132;42.622;23.328;2023-06-14T07:29:57;92627.63;;;21.37;80.38
6198;BME280;3132;42.622;23.328;2023-06-14T07:32:22;92703.50;;;21.07;83.44
6198;BME280;3132;42.622;23.328;2023-06-14T07:34:47;92679.56;;;20.91;83.57
6198;BME280;3132;42.622;23.328;2023-06-14T07:37:13;92707.31;;;21.52;81.58
6198;BME280;3132;42.622;23.328;2023-06-14T07:39:38;92702.22;;;20.73;84.74
6198;BME280;3132;42.622;23.328;2023-06-14T07:42:04;92697.88;;;20.68;86.16
6198;BME280;3132;42.622;23.328;2023-06-14T07:44:30;92706.63;;;22.02;82.11
6198;BME280;3132;42.622;23.328;2023-06-14T07:46:58;92716.41;;;22.86;77.79
6198;BME280;3132;42.622;23.328;2023-06-14T07:49:25;92705.00;;;23.46;74.80
6198;BME280;3132;42.622;23.328;2023-06-14T07:51:50;92693.63;;;22.70;77.70
6198;BME280;3132;42.622;23.328;2023-06-14T07:54:16;92691.28;;;23.25;76.28
6198;BME280;3132;42.622;23.328;2023-06-14T07:56:41;92719.75;;;23.02;77.66
6198;BME280;3132;42.622;23.328;2023-06-14T07:59:07;92712.75;;;22.56;77.33
6198;BME280;3132;42.622;23.328;2023-06-14T08:01:32;92732.31;;;23.02;77.55
6198;BME280;3132;42.622;23.328;2023-06-14T08:03:58;92733.34;;;23.16;74.74
6198;BME280;3132;42.622;23.328;2023-06-14T08:06:24;92728.31;;;22.92;74.16
6198;BME280;3132;42.622;23.328;2023-06-14T08:08:50;92728.41;;;22.42;74.73
6198;BME280;3132;42.622;23.328;2023-06-14T08:11:15;92718.94;;;22.79;74.60
6198;BME280;3132;42.622;23.328;2023-06-14T08:13:41;92747.13;;;21.80;78.23
6198;BME280;3132;42.622;23.328;2023-06-14T08:16:06;92705.94;;;22.05;81.68
6198;BME280;3132;42.622;23.328;2023-06-14T08:18:31;92743.88;;;22.71;77.20
6198;BME280;3132;42.622;23.328;2023-06-14T08:20:57;92748.56;;;22.43;77.17
6198;BME280;3132;42.622;23.328;2023-06-14T08:23:23;92732.38;;;22.33;76.04
6198;BME280;3132;42.622;23.328;2023-06-14T08:25:48;92731.38;;;22.56;75.56
6198;BME280;3132;42.622;23.328;2023-06-14T08:28:13;92761.59;;;22.64;77.21
6198;BME280;3132;42.622;23.328;2023-06-14T08:30:39;92758.72;;;22.72;77.13
6198;BME280;3132;42.622;23.328;2023-06-14T08:33:04;92734.56;;;22.11;79.82
6198;BME280;3132;42.622;23.328;2023-06-14T08:35:30;92742.56;;;21.22;81.43
6198;BME280;3132;42.622;23.328;2023-06-14T08:37:55;92754.81;;;21.54;81.88
6198;BME280;3132;42.622;23.328;2023-06-14T08:40:22;92755.78;;;21.77;83.56
6198;BME280;3132;42.622;23.328;2023-06-14T08:42:51;92744.56;;;21.25;82.28
6198;BME280;3132;42.622;23.328;2023-06-14T08:45:18;92723.38;;;20.85;86.80
6198;BME280;3132;42.622;23.328;2023-06-14T08:47:43;92737.41;;;21.56;83.11
6198;BME280;3132;42.622;23.328;2023-06-14T08:50:11;92702.06;;;21.56;83.93
6198;BME280;3132;42.622;23.328;2023-06-14T08:52:38;92736.47;;;22.46;80.20
6198;BME280;3132;42.622;23.328;2023-06-14T08:55:11;92748.78;;;23.07;76.66
6198;BME280;3132;42.622;23.328;2023-06-14T08:57:37;92741.28;;;22.94;77.92
6198;BME280;3132;42.622;23.328;2023-06-14T09:00:03;92752.81;;;22.63;77.38
6198;BME280;3132;42.622;23.328;2023-06-14T09:02:39;92752.00;;;22.78;76.60
6198;BME280;3132;42.622;23.328;2023-06-14T09:05:09;92747.44;;;22.98;75.72
6198;BME280;3132;42.622;23.328;2023-06-14T09:07:34;92747.22;;;23.44;71.65
6198;BME280;3132;42.622;23.328;2023-06-14T09:10:09;92745.41;;;23.10;73.99
6198;BME280;3132;42.622;23.328;2023-06-14T09:12:35;92729.44;;;23.29;74.37
6198;BME280;3132;42.622;23.328;2023-06-14T09:15:02;92736.09;;;23.61;76.35
6198;BME280;3132;42.622;23.328;2023-06-14T09:17:32;92745.91;;;24.51;68.71
6198;BME280;3132;42.622;23.328;2023-06-14T09:19:59;92742.25;;;24.37;69.03
6198;BME280;3132;42.622;23.328;2023-06-14T09:22:24;92723.00;;;24.50;69.33
6198;BME280;3132;42.622;23.328;2023-06-14T09:24:49;92724.09;;;24.75;66.97
6198;BME280;3132;42.622;23.328;2023-06-14T09:27:15;92654.75;;;23.97;66.47
6198;BME280;3132;42.622;23.328;2023-06-14T09:29:41;92740.72;;;24.36;68.80
6198;BME280;3132;42.622;23.328;2023-06-14T09:32:06;92731.88;;;24.06;69.38
6198;BME280;3132;42.622;23.328;2023-06-14T09:34:33;92728.44;;;24.31;69.96
6198;BME280;3132;42.622;23.328;2023-06-14T09:37:00;92726.91;;;24.30;69.83
6198;BME280;3132;42.622;23.328;2023-06-14T09:39:25;92730.72;;;23.58;71.31
6198;BME280;3132;42.622;23.328;2023-06-14T09:41:50;92702.75;;;22.69;74.57
6198;BME280;3132;42.622;23.328;2023-06-14T09:44:16;92726.91;;;22.98;75.71
6198;BME280;3132;42.622;23.328;2023-06-14T09:46:43;92696.09;;;22.59;78.75
6198;BME280;3132;42.622;23.328;2023-06-14T09:49:09;92697.69;;;22.10;78.89
6198;BME280;3132;42.622;23.328;2023-06-14T09:51:37;92684.88;;;22.15;79.21
6198;BME280;3132;42.622;23.328;2023-06-14T09:54:08;92721.66;;;22.64;78.31
6198;BME280;3132;42.622;23.328;2023-06-14T09:56:41;92721.28;;;22.11;78.61
6198;BME280;3132;42.622;23.328;2023-06-14T09:59:09;92726.28;;;22.32;80.33
6198;BME280;3132;42.622;23.328;2023-06-14T10:01:38;92680.75;;;21.68;80.25
6198;BME280;3132;42.622;23.328;2023-06-14T10:04:07;92709.88;;;21.49;80.08
6198;BME280;3132;42.622;23.328;2023-06-14T10:06:37;92719.03;;;22.48;80.44
6198;BME280;3132;42.622;23.328;2023-06-14T10:09:04;92701.28;;;22.71;77.41
6198;BME280;3132;42.622;23.328;2023-06-14T10:11:32;92687.06;;;22.83;74.44
6198;BME280;3132;42.622;23.328;2023-06-14T10:13:58;92687.13;;;22.67;74.21
6198;BME280;3132;42.622;23.328;2023-06-14T10:24:27;92637.91;;;22.23;74.13
6198;BME280;3132;42.622;23.328;2023-06-14T10:26:57;92694.09;;;22.94;75.35
6198;BME280;3132;42.622;23.328;2023-06-14T10:29:22;92693.31;;;24.00;72.62
6198;BME280;3132;42.622;23.328;2023-06-14T10:31:50;92708.09;;;24.20;67.91
6198;BME280;3132;42.622;23.328;2023-06-14T10:34:27;92695.50;;;23.71;69.28
6198;BME280;3132;42.622;23.328;2023-06-14T10:37:12;92699.22;;;23.90;68.78
6198;BME280;3132;42.622;23.328;2023-06-14T10:39:43;92695.78;;;23.89;69.46
6198;BME280;3132;42.622;23.328;2023-06-14T10:42:11;92703.47;;;23.94;70.05
6198;BME280;3132;42.622;23.328;2023-06-14T10:44:45;92690.34;;;24.05;69.59
6198;BME280;3132;42.622;23.328;2023-06-14T10:49:50;92688.84;;;23.85;69.61
6198;BME280;3132;42.622;23.328;2023-06-14T10:52:16;92694.13;;;23.81;71.03
6198;BME280;3132;42.622;23.328;2023-06-14T10:57:24;92646.16;;;23.85;73.33
6198;BME280;3132;42.622;23.328;2023-06-14T10:59:50;92676.34;;;23.89;71.33
6198;BME280;3132;42.622;23.328;2023-06-14T11:04:51;92675.06;;;23.56;72.42
6198;BME280;3132;42.622;23.328;2023-06-14T11:10:38;92673.63;;;23.85;71.64
6198;BME280;3132;42.622;23.328;2023-06-14T11:13:05;92664.59;;;23.03;73.68
6198;BME280;3132;42.622;23.328;2023-06-14T11:15:31;92668.09;;;23.26;75.68
6198;BME280;3132;42.622;23.328;2023-06-14T11:17:58;92659.16;;;23.37;72.81
6198;BME280;3132;42.622;23.328;2023-06-14T11:20:26;92657.34;;;23.67;73.19
6198;BME280;3132;42.622;23.328;2023-06-14T11:22:52;92647.59;;;23.52;73.57
6198;BME280;3132;42.622;23.328;2023-06-14T11:25:17;92644.13;;;23.48;73.89
6198;BME280;3132;42.622;23.328;2023-06-14T11:27:44;92659.56;;;24.11;72.32
6198;BME280;3132;42.622;23.328;2023-06-14T11:30:11;92654.19;;;24.37;71.80
6198;BME280;3132;42.622;23.328;2023-06-14T11:32:37;92637.28;;;24.00;71.35
6198;BME280;3132;42.622;23.328;2023-06-14T11:35:04;92660.16;;;24.01;72.42
6198;BME280;3132;42.622;23.328;2023-06-14T11:37:33;92655.91;;;23.25;73.34
6198;BME280;3132;42.622;23.328;2023-06-14T11:40:02;92636.38;;;22.98;73.55
6198;BME280;3132;42.622;23.328;2023-06-14T11:42:31;92635.66;;;23.01;73.33
6198;BME280;3132;42.622;23.328;2023-06-14T11:44:56;92633.69;;;23.66;73.15
6198;BME280;3132;42.622;23.328;2023-06-14T11:47:22;92631.81;;;23.93;67.68
6198;BME280;3132;42.622;23.328;2023-06-14T11:49:48;92631.88;;;24.22;71.05
6198;BME280;3132;42.622;23.328;2023-06-14T11:52:13;92608.03;;;24.36;66.37
6198;BME280;3132;42.622;23.328;2023-06-14T11:54:39;92617.81;;;24.88;64.87
6198;BME280;3132;42.622;23.328;2023-06-14T11:57:07;92629.84;;;24.71;68.09
6198;BME280;3132;42.622;23.328;2023-06-14T11:59:38;92613.16;;;23.66;68.11
6198;BME280;3132;42.622;23.328;2023-06-14T12:02:05;92618.75;;;23.58;72.41
6198;BME280;3132;42.622;23.328;2023-06-14T12:04:31;92616.97;;;23.20;70.27
6198;BME280;3132;42.622;23.328;2023-06-14T12:06:56;92614.41;;;23.99;68.54
6198;BME280;3132;42.622;23.328;2023-06-14T12:09:23;92610.41;;;23.59;71.92
6198;BME280;3132;42.622;23.328;2023-06-14T12:11:51;92612.63;;;24.10;69.10
6198;BME280;3132;42.622;23.328;2023-06-14T12:14:28;92601.72;;;24.18;68.95
6198;BME280;3132;42.622;23.328;2023-06-14T12:17:04;92616.72;;;24.30;68.54
6198;BME280;3132;42.622;23.328;2023-06-14T12:19:31;92613.66;;;24.28;65.99
6198;BME280;3132;42.622;23.328;2023-06-14T12:21:59;92602.50;;;24.19;66.31
6198;BME280;3132;42.622;23.328;2023-06-14T12:24:29;92601.38;;;23.94;71.19
6198;BME280;3132;42.622;23.328;2023-06-14T12:26:57;92605.28;;;24.00;72.07
6198;BME280;3132;42.622;23.328;2023-06-14T12:29:24;92583.53;;;23.98;70.41
6198;BME280;3132;42.622;23.328;2023-06-14T12:31:50;92601.44;;;24.27;72.16
6198;BME280;3132;42.622;23.328;2023-06-14T12:34:16;92607.19;;;24.29;72.75
6198;BME280;3132;42.622;23.328;2023-06-14T12:36:41;92590.44;;;24.32;69.81
6198;BME280;3132;42.622;23.328;2023-06-14T12:39:09;92599.94;;;24.29;75.18
6198;BME280;3132;42.622;23.328;2023-06-14T12:41:35;92596.09;;;24.27;73.64
6198;BME280;3132;42.622;23.328;2023-06-14T12:44:01;92571.44;;;23.29;79.38
6198;BME280;3132;42.622;23.328;2023-06-14T12:46:30;92586.38;;;23.11;81.16
6198;BME280;3132;42.622;23.328;2023-06-14T12:48:56;92588.06;;;23.22;82.50
6198;BME280;3132;42.622;23.328;2023-06-14T12:51:22;92573.72;;;23.27;82.41
6198;BME280;3132;42.622;23.328;2023-06-14T12:53:47;92573.34;;;23.06;84.47
6198;BME280;3132;42.622;23.328;2023-06-14T12:56:14;92577.97;;;22.86;84.97
6198;BME280;3132;42.622;23.328;2023-06-14T12:58:41;92582.03;;;22.80;86.33
6198;BME280;3132;42.622;23.328;2023-06-14T13:01:06;92576.22;;;22.52;88.29
6198;BME280;3132;42.622;23.328;2023-06-14T13:03:32;92576.75;;;22.42;88.30
6198;BME280;3132;42.622;23.328;2023-06-14T13:05:58;92570.66;;;22.03;89.50
6198;BME280;3132;42.622;23.328;2023-06-14T13:08:24;92566.09;;;21.85;92.26
6198;BME280;3132;42.622;23.328;2023-06-14T13:10:49;92582.56;;;21.25;94.94
6198;BME280;3132;42.622;23.328;2023-06-14T13:13:14;92587.97;;;20.97;98.73
6198;BME280;3132;42.622;23.328;2023-06-14T13:15:40;92579.44;;;20.60;100.00
6198;BME280;3132;42.622;23.328;2023-06-14T13:18:05;92597.41;;;19.84;100.00
6198;BME280;3132;42.622;23.328;2023-06-14T13:20:31;92601.78;;;19.92;100.00
6198;BME280;3132;42.622;23.328;2023-06-14T13:22:57;92611.91;;;20.02;100.00
6198;BME280;3132;42.622;23.328;2023-06-14T13:25:22;92611.59;;;19.28;100.00